createdAt,value
2022-10-25T00:00:02.279Z,16.08
2022-10-25T00:03:27.445Z,16.08
2022-10-25T00:06:52.637Z,16.07
2022-10-25T00:10:19.138Z,16.049999
2022-10-25T00:13:43.003Z,16.030001
2022-10-25T00:17:08.199Z,16.02
2022-10-25T00:20:33.377Z,16.049999
2022-10-25T00:23:58.578Z,16.030001
2022-10-25T00:27:23.781Z,16.01
2022-10-25T00:30:48.952Z,15.96
2022-10-25T00:34:14.136Z,15.89
2022-10-25T00:37:39.335Z,15.81
2022-10-25T00:41:04.483Z,15.76
2022-10-25T00:44:29.668Z,15.71
2022-10-25T00:47:54.809Z,15.72
2022-10-25T00:51:20.022Z,15.7
2022-10-25T00:54:45.189Z,15.67
2022-10-25T00:58:10.394Z,15.66
2022-10-25T01:01:35.730Z,15.68
2022-10-25T01:05:00.801Z,15.68
2022-10-25T01:08:25.995Z,15.69
2022-10-25T01:11:51.207Z,15.67
2022-10-25T01:15:16.389Z,15.66
2022-10-25T01:18:41.586Z,15.67
2022-10-25T01:22:06.779Z,15.66
2022-10-25T01:25:31.985Z,15.61
2022-10-25T01:28:57.140Z,15.58
2022-10-25T01:32:22.336Z,15.62
2022-10-25T01:35:47.542Z,15.63
2022-10-25T01:39:12.695Z,15.6
2022-10-25T01:42:37.905Z,15.55
2022-10-25T01:46:03.134Z,15.54
2022-10-25T01:49:28.318Z,15.51
2022-10-25T01:56:18.675Z,15.51
2022-10-25T01:59:43.877Z,15.55
2022-10-25T02:03:09.034Z,15.59
2022-10-25T02:06:34.196Z,15.55
2022-10-25T02:09:59.470Z,15.57
2022-10-25T02:13:24.539Z,15.63
2022-10-25T02:16:49.741Z,15.67
2022-10-25T02:20:14.917Z,15.64
2022-10-25T02:23:40.089Z,15.62
2022-10-25T02:27:05.277Z,15.57
2022-10-25T02:30:30.457Z,15.57
2022-10-25T02:33:55.636Z,15.58
2022-10-25T02:37:20.802Z,15.59
2022-10-25T02:40:45.995Z,15.56
2022-10-25T02:44:11.168Z,15.57
2022-10-25T02:47:36.325Z,15.59
2022-10-25T02:51:01.496Z,15.59
2022-10-25T02:54:26.685Z,15.56
2022-10-25T02:57:51.852Z,15.51
2022-10-25T03:01:17.114Z,15.5
2022-10-25T03:04:42.200Z,15.5
2022-10-25T03:08:07.381Z,15.43
2022-10-25T03:11:32.556Z,15.38
2022-10-25T03:14:57.734Z,15.36
2022-10-25T03:18:22.922Z,15.37
2022-10-25T03:21:48.065Z,15.37
2022-10-25T03:25:13.214Z,15.33
2022-10-25T03:28:38.405Z,15.29
2022-10-25T03:32:03.613Z,15.3
2022-10-25T03:35:28.809Z,15.31
2022-10-25T03:38:53.951Z,15.29
2022-10-25T03:42:19.103Z,15.28
2022-10-25T03:45:44.286Z,15.27
2022-10-25T03:49:09.449Z,15.24
2022-10-25T03:52:34.618Z,15.16
2022-10-25T03:55:59.797Z,15.12
2022-10-25T03:59:24.999Z,15.08
2022-10-25T04:02:50.193Z,15.09
2022-10-25T04:06:15.350Z,15.13
2022-10-25T04:09:40.537Z,15.15
2022-10-25T04:13:05.689Z,15.14
2022-10-25T04:16:30.840Z,15.14
2022-10-25T04:19:56.344Z,15.11
2022-10-25T04:23:21.518Z,15.13
2022-10-25T04:26:46.752Z,15.14
2022-10-25T04:30:11.885Z,15.14
2022-10-25T04:33:37.076Z,15.13
2022-10-25T04:37:02.242Z,15.09
2022-10-25T04:40:27.412Z,15.04
2022-10-25T04:43:52.637Z,15.06
2022-10-25T04:47:17.783Z,15.09
2022-10-25T04:50:42.981Z,15.06
2022-10-25T04:54:08.177Z,15
2022-10-25T04:57:33.420Z,14.95
2022-10-25T05:00:58.661Z,14.95
2022-10-25T05:04:23.778Z,14.96
2022-10-25T05:07:48.973Z,14.99
2022-10-25T05:11:14.175Z,15.02
2022-10-25T05:14:39.353Z,15.05
2022-10-25T05:18:04.547Z,15.05
2022-10-25T05:21:29.698Z,15.03
2022-10-25T05:24:54.895Z,14.99
2022-10-25T05:28:20.082Z,14.92
2022-10-25T05:31:45.274Z,14.86
2022-10-25T05:35:10.486Z,14.86
2022-10-25T05:38:36.998Z,14.85
2022-10-25T05:42:00.829Z,14.83
2022-10-25T05:45:26.032Z,14.79
2022-10-25T05:48:51.265Z,14.76
2022-10-25T05:52:16.466Z,14.74
2022-10-25T05:55:41.647Z,14.73
2022-10-25T05:59:06.829Z,14.75
2022-10-25T06:02:32.075Z,14.76
2022-10-25T06:05:57.200Z,14.78
2022-10-25T06:09:22.398Z,14.81
2022-10-25T06:12:47.845Z,14.84
2022-10-25T06:16:12.772Z,14.88
2022-10-25T06:19:37.946Z,14.87
2022-10-25T06:23:03.140Z,14.9
2022-10-25T06:26:28.356Z,14.86
2022-10-25T06:29:53.481Z,14.83
2022-10-25T06:33:18.777Z,14.82
2022-10-25T06:36:44.376Z,14.84
2022-10-25T06:40:09.660Z,14.87
2022-10-25T06:43:34.869Z,14.85
2022-10-25T06:47:21.000Z,14.87
2022-10-25T06:50:25.627Z,14.87
2022-10-25T06:53:51.087Z,14.85
2022-10-25T06:57:16.456Z,14.85
2022-10-25T07:00:42.837Z,14.87
2022-10-25T07:04:07.495Z,14.9
2022-10-25T07:07:32.695Z,14.89
2022-10-25T07:10:58.140Z,14.89
2022-10-25T07:14:23.457Z,14.95
2022-10-25T07:17:48.896Z,14.97
2022-10-25T07:21:13.816Z,15.04
2022-10-25T07:24:38.961Z,15.11
2022-10-25T07:28:04.239Z,15.12
2022-10-25T07:31:29.455Z,15.13
2022-10-25T07:34:54.662Z,15.14
2022-10-25T07:38:21.629Z,15.13
2022-10-25T07:41:44.976Z,15.13
2022-10-25T07:45:10.153Z,15.13
2022-10-25T07:48:35.329Z,15.12
2022-10-25T07:52:00.541Z,15.13
2022-10-25T07:55:25.710Z,15.19
2022-10-25T07:58:50.905Z,15.2
2022-10-25T08:02:16.105Z,15.25
2022-10-25T08:05:41.282Z,15.23
2022-10-25T08:09:14.137Z,15.22
2022-10-25T08:12:31.636Z,15.23
2022-10-25T08:15:56.840Z,15.24
2022-10-25T08:19:22.046Z,15.23
2022-10-25T08:22:47.233Z,15.26
2022-10-25T08:26:12.442Z,15.29
2022-10-25T08:29:37.612Z,15.33
2022-10-25T08:33:02.772Z,15.35
2022-10-25T08:36:27.966Z,15.35
2022-10-25T08:39:53.619Z,15.32
2022-10-25T08:43:18.326Z,15.35
2022-10-25T08:46:43.483Z,15.41
2022-10-25T08:50:08.664Z,15.47
2022-10-25T08:53:33.836Z,15.51
2022-10-25T08:57:14.509Z,15.59
2022-10-25T09:00:24.284Z,15.6
2022-10-25T09:03:49.439Z,15.59
2022-10-25T09:07:14.635Z,15.59
2022-10-25T09:10:39.803Z,15.57
2022-10-25T09:14:05.023Z,15.6
2022-10-25T09:17:30.189Z,15.63
2022-10-25T09:20:55.338Z,15.67
2022-10-25T09:24:20.512Z,15.73
2022-10-25T09:27:46.030Z,15.7
2022-10-25T09:31:10.882Z,15.69
2022-10-25T09:34:36.091Z,15.66
2022-10-25T09:38:01.244Z,15.67
2022-10-25T09:41:26.436Z,15.8
2022-10-25T09:44:51.617Z,15.95
2022-10-25T09:48:16.823Z,16.049999
2022-10-25T09:51:42.057Z,16.030001
2022-10-25T09:55:07.191Z,15.94
2022-10-25T09:58:32.366Z,15.86
2022-10-25T10:01:57.685Z,15.79
2022-10-25T10:05:22.694Z,15.78
2022-10-25T10:08:47.880Z,15.77
2022-10-25T10:12:13.016Z,15.79
2022-10-25T10:15:38.191Z,15.83
2022-10-25T10:19:03.344Z,15.85
2022-10-25T10:22:28.516Z,15.89
2022-10-25T10:25:53.692Z,15.89
2022-10-25T10:29:18.865Z,15.89
2022-10-25T10:32:44.008Z,15.9
2022-10-25T10:36:09.155Z,15.88
2022-10-25T10:39:34.326Z,15.86
2022-10-25T10:43:26.965Z,15.86
2022-10-25T10:46:52.974Z,15.9
2022-10-25T10:50:18.113Z,15.92
2022-10-25T10:53:43.274Z,15.94
2022-10-25T10:57:08.468Z,15.94
2022-10-25T11:00:33.653Z,16
2022-10-25T11:04:00.715Z,16.120001
2022-10-25T11:07:23.962Z,16.25
2022-10-25T11:10:49.145Z,16.33
2022-10-25T11:14:14.330Z,16.389999
2022-10-25T11:17:39.620Z,16.5
2022-10-25T11:21:04.696Z,16.67
2022-10-25T11:24:29.856Z,16.780001
2022-10-25T11:27:55.016Z,16.77
2022-10-25T11:31:20.204Z,16.809999
2022-10-25T11:34:45.486Z,16.93
2022-10-25T11:38:10.552Z,17.040001
2022-10-25T11:41:35.730Z,17.110001
2022-10-25T11:45:00.893Z,17.15
2022-10-25T11:48:26.062Z,17.139999
2022-10-25T11:51:51.354Z,17.139999
2022-10-25T11:55:16.391Z,17.17
2022-10-25T11:58:41.570Z,17.27
2022-10-25T12:02:06.738Z,17.33
2022-10-25T12:05:31.980Z,17.370001
2022-10-25T12:08:57.295Z,17.389999
2022-10-25T12:12:22.431Z,17.4
2022-10-25T12:15:47.614Z,17.379999
2022-10-25T12:19:12.762Z,17.35
2022-10-25T12:22:37.958Z,17.370001
2022-10-25T12:26:03.255Z,17.4
2022-10-25T12:29:28.276Z,17.41
2022-10-25T12:32:53.528Z,17.43
2022-10-25T12:36:18.718Z,17.48
2022-10-25T12:39:43.867Z,17.48
2022-10-25T12:43:09.137Z,17.48
2022-10-25T12:46:34.155Z,17.450001
2022-10-25T12:49:59.343Z,17.440001
2022-10-25T12:53:24.545Z,17.389999
2022-10-25T12:56:49.855Z,17.299999
2022-10-25T13:00:15.342Z,17.24
2022-10-25T13:03:40.376Z,17.209999
2022-10-25T13:07:05.658Z,17.18
2022-10-25T13:10:30.963Z,17.18
2022-10-25T13:13:56.250Z,17.129999
2022-10-25T13:17:21.593Z,17.08
2022-10-25T13:20:46.796Z,17.049999
2022-10-25T13:24:12.051Z,17.040001
2022-10-25T13:27:37.275Z,17.030001
2022-10-25T13:31:02.554Z,17.040001
2022-10-25T13:34:27.928Z,17.049999
2022-10-25T13:37:53.020Z,16.99
2022-10-25T13:41:18.260Z,16.99
2022-10-25T13:44:43.483Z,17.040001
2022-10-25T13:48:08.683Z,17.120001
2022-10-25T13:51:34.102Z,17.24
2022-10-25T13:54:59.254Z,17.360001
2022-10-25T13:58:25.736Z,17.43
2022-10-25T14:01:49.877Z,17.540001
2022-10-25T14:05:15.042Z,17.620001
2022-10-25T14:08:40.322Z,17.629999
2022-10-25T14:12:06.524Z,17.540001
2022-10-25T14:15:30.747Z,17.43
2022-10-25T14:18:56.037Z,17.35
2022-10-25T14:22:21.303Z,17.25
2022-10-25T14:25:46.622Z,17.18
2022-10-25T14:29:11.826Z,17.200001
2022-10-25T15:03:51.686Z,14.88
2022-10-25T15:07:16.914Z,15.81
2022-10-25T15:10:42.159Z,16.030001
2022-10-25T15:14:07.488Z,16.200001
2022-10-25T15:17:32.754Z,16.35
2022-10-25T15:20:59.731Z,16.51
2022-10-25T15:24:23.282Z,16.629999
2022-10-25T15:27:48.637Z,16.73
2022-10-25T15:31:16.020Z,16.77
2022-10-25T15:34:39.167Z,16.809999
2022-10-25T15:38:04.451Z,16.82
2022-10-25T15:41:29.669Z,16.82
2022-10-25T15:44:54.934Z,16.82
2022-10-25T15:48:20.203Z,16.790001
2022-10-25T15:51:45.511Z,16.76
2022-10-25T15:55:10.812Z,16.74
2022-10-25T15:58:36.033Z,16.73
2022-10-25T16:02:01.331Z,16.709999
2022-10-25T16:05:26.558Z,16.67
2022-10-25T16:08:51.810Z,16.639999
2022-10-25T16:12:17.081Z,16.59
2022-10-25T16:15:42.263Z,16.559999
2022-10-25T16:19:07.692Z,16.52
2022-10-25T16:22:32.577Z,16.450001
2022-10-25T16:25:57.748Z,16.43
2022-10-25T16:29:22.981Z,16.41
2022-10-25T16:32:48.343Z,16.379999
2022-10-25T16:36:13.312Z,16.360001
2022-10-25T16:39:38.493Z,16.34
2022-10-25T16:43:03.661Z,16.27
2022-10-25T16:46:28.831Z,16.18
2022-10-25T16:49:53.987Z,16.16
2022-10-25T16:53:19.176Z,16.1
2022-10-25T16:56:44.342Z,16.07
2022-10-25T17:00:09.491Z,16.049999
2022-10-25T17:03:34.663Z,16.030001
2022-10-25T17:06:59.802Z,16.01
2022-10-25T17:10:24.954Z,15.97
2022-10-25T17:13:50.116Z,15.92
2022-10-25T17:17:15.377Z,15.87
2022-10-25T17:20:40.506Z,15.82
2022-10-25T17:24:05.634Z,15.81
2022-10-25T17:27:30.789Z,15.77
2022-10-25T17:30:55.940Z,15.74
2022-10-25T17:34:21.097Z,15.67
2022-10-25T17:37:46.645Z,15.61
2022-10-25T17:41:11.417Z,15.56
2022-10-25T17:44:36.576Z,15.51
2022-10-25T17:48:01.740Z,15.47
2022-10-25T17:51:26.909Z,15.45
2022-10-25T17:54:52.090Z,15.4
2022-10-25T17:58:17.216Z,15.35
2022-10-25T18:01:42.425Z,15.32
2022-10-25T18:05:19.701Z,15.32
2022-10-25T18:08:32.736Z,15.3
2022-10-25T18:11:57.917Z,15.28
2022-10-25T18:15:23.055Z,15.27
2022-10-25T18:18:48.238Z,15.21
2022-10-25T18:22:13.394Z,15.13
2022-10-25T18:25:38.564Z,15.06
2022-10-25T18:29:03.754Z,14.99
2022-10-25T18:32:32.108Z,14.93
2022-10-25T18:35:54.046Z,14.88
2022-10-25T18:39:19.222Z,14.82
2022-10-25T18:42:44.362Z,14.76
2022-10-25T18:46:09.556Z,14.69
2022-10-25T18:49:34.697Z,14.6
2022-10-25T18:52:59.865Z,14.56
2022-10-25T18:56:25.039Z,14.5
2022-10-25T18:59:50.222Z,14.44
2022-10-25T19:03:15.398Z,14.4
2022-10-25T19:06:40.540Z,14.37
2022-10-25T19:10:05.717Z,14.36
2022-10-25T19:13:30.906Z,14.32
2022-10-25T19:16:56.068Z,14.31
2022-10-25T19:20:21.321Z,14.31
2022-10-25T19:23:49.739Z,14.31
2022-10-25T19:27:14.956Z,14.32
2022-10-25T19:30:40.135Z,14.39
2022-10-25T19:34:05.410Z,14.44
2022-10-25T19:37:30.647Z,14.49
2022-10-25T19:40:55.828Z,14.53
2022-10-25T19:44:21.045Z,14.58
2022-10-25T19:47:46.518Z,14.61
2022-10-25T19:51:11.419Z,14.63
2022-10-25T19:54:36.686Z,14.59
2022-10-25T19:58:01.856Z,14.54
2022-10-25T20:01:27.154Z,14.48
2022-10-25T20:04:52.234Z,14.41
2022-10-25T20:08:17.465Z,14.33
2022-10-25T20:11:42.668Z,14.27
2022-10-25T20:15:07.893Z,14.22
2022-10-25T20:18:33.068Z,14.17
2022-10-25T20:21:58.246Z,14.12
2022-10-25T20:25:23.443Z,14.07
2022-10-25T20:28:48.672Z,14
2022-10-25T20:32:13.822Z,13.92
2022-10-25T20:35:39.000Z,13.88
2022-10-25T20:39:04.203Z,13.85
2022-10-25T20:42:29.430Z,13.84
2022-10-25T20:45:54.621Z,13.81
2022-10-25T20:49:19.790Z,13.76
2022-10-25T20:52:52.779Z,13.69
2022-10-25T20:56:10.169Z,13.66
2022-10-25T20:59:35.453Z,13.62
2022-10-25T21:03:00.628Z,13.58
2022-10-25T21:06:25.776Z,13.52
2022-10-25T21:09:50.944Z,13.48
2022-10-25T21:13:16.106Z,13.44
2022-10-25T21:16:41.263Z,13.41
2022-10-25T21:20:06.447Z,13.4
2022-10-25T21:23:31.592Z,13.4
2022-10-25T21:26:56.750Z,13.37
2022-10-25T21:30:21.896Z,13.34
2022-10-25T21:33:49.393Z,13.31
2022-10-25T21:37:12.302Z,13.27
2022-10-25T21:40:37.384Z,13.21
2022-10-25T21:44:02.644Z,13.19
2022-10-25T21:47:27.754Z,13.14
2022-10-25T21:50:52.905Z,13.1
2022-10-25T21:54:18.084Z,13.07
2022-10-25T21:57:43.217Z,13.04
2022-10-25T22:01:08.468Z,13.02
2022-10-25T22:04:33.523Z,13
2022-10-25T22:07:58.689Z,12.99
2022-10-25T22:11:23.887Z,12.97
2022-10-25T22:14:49.000Z,12.95
2022-10-25T22:18:14.153Z,12.9
2022-10-25T22:21:39.325Z,12.86
2022-10-25T22:25:04.486Z,12.86
2022-10-25T22:28:29.677Z,12.84
2022-10-25T22:31:54.850Z,12.85
2022-10-25T22:35:20.022Z,12.85
2022-10-25T22:38:45.183Z,12.84
2022-10-25T22:42:10.349Z,12.82
2022-10-25T22:45:35.545Z,12.81
2022-10-25T22:49:00.675Z,12.78
2022-10-25T22:52:25.838Z,12.77
2022-10-25T22:55:51.076Z,12.73
2022-10-25T22:59:16.223Z,12.67
2022-10-25T23:02:41.401Z,12.64
2022-10-25T23:06:06.539Z,12.6
2022-10-25T23:09:31.680Z,12.58
2022-10-25T23:12:56.851Z,12.6
2022-10-25T23:16:22.015Z,12.57
2022-10-25T23:19:47.185Z,12.57
2022-10-25T23:23:12.336Z,12.59
2022-10-25T23:26:37.528Z,12.59
2022-10-25T23:30:02.691Z,12.56
2022-10-25T23:33:27.839Z,12.55
2022-10-25T23:36:53.021Z,12.54
2022-10-25T23:40:18.162Z,12.51
2022-10-25T23:43:43.318Z,12.48
2022-10-25T23:47:08.483Z,12.46
2022-10-25T23:50:33.653Z,12.42
2022-10-25T23:53:58.830Z,12.41
2022-10-25T23:57:23.974Z,12.43
